Time;durP1;ratioP1;P1;durP2;ratioP2;P2;SDS_P1;SDS_P2;PMS_P1;PMS_P2;Temp;Humidity;BMP_temperature;BMP_pressure;BME280_temperature;BME280_humidity;BME280_pressure;Samples;Min_cycle;Max_cycle;Signal;HPM_P1;HPM_P2
2021/06/08 00:01:19;;;;;;;7.53;5.95;;;;;;;;;;10285622;28;20064;-66
2021/06/08 00:06:15;;;;;;;7.68;5.68;;;;;;;;;;10288796;28;20044;-66
2021/06/08 00:11:12;;;;;;;6.57;5.60;;;;;;;;;;10279849;28;20044;-66
2021/06/08 00:16:08;;;;;;;5.93;4.72;;;;;;;;;;10274186;28;20691;-67
2021/06/08 00:21:05;;;;;;;6.68;5.07;;;;;;;;;;10274243;28;20048;-66
2021/06/08 00:26:01;;;;;;;6.45;4.53;;;;;;;;;;10284749;28;20044;-66
2021/06/08 00:30:57;;;;;;;7.60;5.63;;;;;;;;;;10280594;28;20139;-67
2021/06/08 00:35:54;;;;;;;8.07;4.95;;;;;;;;;;10269916;28;20111;-66
2021/06/08 00:40:50;;;;;;;7.57;4.88;;;;;;;;;;10287968;28;20136;-66
2021/06/08 00:45:47;;;;;;;6.28;4.82;;;;;;;;;;10281635;28;20076;-67
2021/06/08 00:50:43;;;;;;;7.20;5.03;;;;;;;;;;10276451;28;20494;-66
2021/06/08 00:55:39;;;;;;;6.70;5.07;;;;;;;;;;10284485;28;20041;-66
2021/06/08 01:00:36;;;;;;;6.22;5.30;;;;;;;;;;10274670;28;20057;-67
2021/06/08 01:05:32;;;;;;;6.97;6.28;;;;;;;;;;10256041;28;20569;-66
2021/06/08 01:10:28;;;;;;;8.07;6.10;;;;;;;;;;10274716;28;20477;-67
2021/06/08 01:15:25;;;;;;;9.75;6.68;;;;;;;;;;10271326;28;20049;-66
2021/06/08 01:20:22;;;;;;;8.00;6.68;;;;;;;;;;10275368;28;20052;-66
2021/06/08 01:25:18;;;;;;;9.35;6.60;;;;;;;;;;10276200;28;20045;-67
2021/06/08 01:30:15;;;;;;;8.00;7.15;;;;;;;;;;10282021;28;20143;-67
2021/06/08 01:35:12;;;;;;;9.88;7.47;;;;;;;;;;10281545;28;20585;-66
2021/06/08 01:40:08;;;;;;;10.27;7.22;;;;;;;;;;10281974;28;20467;-67
2021/06/08 01:45:05;;;;;;;12.55;8.02;;;;;;;;;;10282629;28;20053;-66
2021/06/08 01:50:02;;;;;;;8.85;7.78;;;;;;;;;;10288277;28;20486;-66
2021/06/08 01:54:58;;;;;;;8.57;6.95;;;;;;;;;;10279235;28;20128;-67
2021/06/08 02:00:01;;;;;;;10.20;7.20;;;;;;;;;;10287871;28;20117;-66
2021/06/08 02:05:05;;;;;;;9.17;7.43;;;;;;;;;;10280886;28;20113;-66
2021/06/08 02:10:01;;;;;;;10.43;7.28;;;;;;;;;;10263619;28;20076;-66
2021/06/08 02:14:58;;;;;;;9.75;7.05;;;;;;;;;;10269704;28;20743;-66
2021/06/08 02:19:55;;;;;;;9.52;8.48;;;;;;;;;;10277190;28;20589;-66
2021/06/08 02:24:52;;;;;;;11.65;7.82;;;;;;;;;;10264406;28;20128;-66
2021/06/08 02:29:50;;;;;;;10.75;8.20;;;;;;;;;;10285721;28;20554;-66
2021/06/08 02:34:47;;;;;;;9.95;8.15;;;;;;;;;;10266696;28;20082;-67
2021/06/08 02:39:43;;;;;;;7.80;6.93;;;;;;;;;;10277203;28;20041;-66
2021/06/08 02:44:41;;;;;;;15.07;7.53;;;;;;;;;;10271887;28;20072;-66
2021/06/08 02:49:37;;;;;;;10.50;6.82;;;;;;;;;;10285620;28;20071;-67
2021/06/08 02:54:34;;;;;;;9.85;6.70;;;;;;;;;;10284308;28;20064;-66
2021/06/08 02:59:31;;;;;;;11.02;7.95;;;;;;;;;;10290121;28;20128;-67
2021/06/08 03:04:32;;;;;;;12.00;7.32;;;;;;;;;;10280839;28;20132;-67
2021/06/08 03:09:34;;;;;;;13.27;8.50;;;;;;;;;;10277393;28;20163;-67
2021/06/08 03:14:31;;;;;;;9.53;7.70;;;;;;;;;;10276484;28;21209;-66
2021/06/08 03:19:31;;;;;;;9.57;7.65;;;;;;;;;;10283562;28;20071;-66
2021/06/08 03:24:29;;;;;;;11.75;8.70;;;;;;;;;;10283391;28;20072;-66
2021/06/08 03:29:26;;;;;;;10.63;6.93;;;;;;;;;;10284306;28;20492;-66
2021/06/08 03:34:23;;;;;;;10.23;7.22;;;;;;;;;;10277943;28;20614;-67
2021/06/08 03:39:20;;;;;;;9.65;7.47;;;;;;;;;;10290256;28;20131;-66
2021/06/08 03:44:17;;;;;;;9.55;8.25;;;;;;;;;;10272416;28;20521;-67
2021/06/08 03:49:14;;;;;;;9.40;7.15;;;;;;;;;;10284057;28;20080;-66
2021/06/08 03:54:11;;;;;;;9.25;6.97;;;;;;;;;;10276223;28;20490;-66
2021/06/08 03:59:09;;;;;;;8.65;7.40;;;;;;;;;;10284593;28;20513;-66
2021/06/08 04:04:06;;;;;;;9.50;7.18;;;;;;;;;;10277561;28;20104;-66
2021/06/08 04:09:06;;;;;;;12.32;7.22;;;;;;;;;;10281625;28;20131;-66
2021/06/08 04:14:03;;;;;;;8.80;6.60;;;;;;;;;;10296600;28;20048;-66
2021/06/08 04:18:59;;;;;;;9.10;6.90;;;;;;;;;;10272032;28;20068;-66
2021/06/08 04:23:59;;;;;;;11.27;7.28;;;;;;;;;;10279571;28;20072;-66
2021/06/08 04:28:56;;;;;;;15.70;6.28;;;;;;;;;;10277105;28;20072;-67
2021/06/08 04:33:52;;;;;;;8.43;6.47;;;;;;;;;;10282921;28;20538;-66
2021/06/08 04:38:48;;;;;;;11.00;8.05;;;;;;;;;;10275753;28;20129;-66
2021/06/08 04:43:45;;;;;;;11.20;6.72;;;;;;;;;;10268109;28;20041;-66
2021/06/08 04:48:45;;;;;;;10.35;6.78;;;;;;;;;;10284786;28;20103;-66
2021/06/08 04:53:45;;;;;;;7.93;6.40;;;;;;;;;;10283638;28;20037;-66
2021/06/08 04:58:42;;;;;;;9.77;6.25;;;;;;;;;;10271014;28;20041;-66
2021/06/08 05:03:42;;;;;;;8.25;7.10;;;;;;;;;;10279705;28;20115;-66
2021/06/08 05:08:40;;;;;;;7.97;6.57;;;;;;;;;;10286326;28;20076;-66
2021/06/08 05:13:36;;;;;;;7.13;6.43;;;;;;;;;;10288228;28;20132;-66
2021/06/08 05:18:33;;;;;;;7.88;5.38;;;;;;;;;;10274013;28;20045;-66
2021/06/08 05:23:29;;;;;;;8.32;6.00;;;;;;;;;;10277668;28;20095;-67
2021/06/08 05:28:26;;;;;;;9.35;5.78;;;;;;;;;;10276216;28;20550;-67
2021/06/08 05:33:24;;;;;;;8.48;5.95;;;;;;;;;;10280962;28;20075;-67
2021/06/08 05:38:36;;;;;;;10.18;5.97;;;;;;;;;;10276619;28;20037;-66
2021/06/08 05:43:33;;;;;;;11.02;6.47;;;;;;;;;;10277848;28;20441;-67
2021/06/08 05:48:29;;;;;;;8.98;6.00;;;;;;;;;;10263055;28;20075;-66
2021/06/08 05:53:26;;;;;;;8.75;6.00;;;;;;;;;;10283684;28;20041;-66
2021/06/08 05:58:26;;;;;;;7.82;5.85;;;;;;;;;;10264549;28;20041;-66
2021/06/08 06:03:23;;;;;;;8.80;6.10;;;;;;;;;;10280254;28;20065;-66
2021/06/08 06:08:19;;;;;;;8.00;5.95;;;;;;;;;;10283045;28;20049;-66
2021/06/08 06:13:23;;;;;;;8.88;5.97;;;;;;;;;;10271429;28;20128;-66
2021/06/08 06:18:20;;;;;;;10.65;6.10;;;;;;;;;;10261914;28;20048;-66
2021/06/08 06:23:17;;;;;;;9.32;6.18;;;;;;;;;;10279633;28;20044;-66
2021/06/08 06:28:14;;;;;;;7.88;6.20;;;;;;;;;;10291140;28;20504;-66
2021/06/08 06:33:10;;;;;;;8.18;5.85;;;;;;;;;;10283761;28;20096;-66
2021/06/08 06:38:07;;;;;;;10.85;5.65;;;;;;;;;;10286605;28;20124;-66
2021/06/08 06:43:05;;;;;;;8.85;5.82;;;;;;;;;;10280448;28;20045;-66
2021/06/08 06:48:02;;;;;;;8.15;5.30;;;;;;;;;;10273015;28;20048;-67
2021/06/08 06:52:59;;;;;;;7.90;5.10;;;;;;;;;;10295965;28;20545;-67
2021/06/08 06:57:55;;;;;;;8.93;5.95;;;;;;;;;;10274717;28;20565;-66
2021/06/08 07:02:53;;;;;;;8.43;5.47;;;;;;;;;;10289862;28;20049;-66
2021/06/08 07:07:51;;;;;;;8.80;5.90;;;;;;;;;;10286880;28;20190;-67
2021/06/08 07:12:47;;;;;;;12.63;6.22;;;;;;;;;;10292192;28;20098;-67
2021/06/08 07:17:45;;;;;;;8.48;5.88;;;;;;;;;;10272944;28;20107;-66
2021/06/08 07:22:43;;;;;;;10.23;7.07;;;;;;;;;;10286152;28;20045;-67
2021/06/08 07:27:40;;;;;;;8.80;6.00;;;;;;;;;;10283640;28;20044;-67
2021/06/08 07:32:39;;;;;;;11.73;6.05;;;;;;;;;;10288553;28;20037;-66
2021/06/08 07:37:39;;;;;;;7.88;6.00;;;;;;;;;;10276798;28;20136;-67
2021/06/08 07:42:41;;;;;;;8.23;5.68;;;;;;;;;;10279470;28;20574;-66
2021/06/08 07:47:38;;;;;;;7.97;4.90;;;;;;;;;;10280453;28;20072;-66
2021/06/08 07:52:35;;;;;;;9.10;5.93;;;;;;;;;;10286280;28;20051;-67
2021/06/08 07:57:32;;;;;;;8.48;5.45;;;;;;;;;;10281481;28;20544;-67
2021/06/08 08:02:38;;;;;;;8.77;6.00;;;;;;;;;;10282235;28;20637;-66
2021/06/08 08:07:35;;;;;;;9.05;5.43;;;;;;;;;;10287361;28;20127;-66
2021/06/08 08:12:34;;;;;;;12.65;5.68;;;;;;;;;;10284336;28;20067;-66
2021/06/08 08:17:30;;;;;;;11.80;5.65;;;;;;;;;;10277065;28;20436;-67
2021/06/08 08:22:27;;;;;;;7.13;5.03;;;;;;;;;;10292081;28;20135;-66
2021/06/08 08:27:25;;;;;;;7.43;5.22;;;;;;;;;;10268237;28;20392;-66
2021/06/08 08:32:22;;;;;;;11.63;6.03;;;;;;;;;;10278915;28;20135;-67
2021/06/08 08:37:19;;;;;;;8.20;4.90;;;;;;;;;;10280646;28;20045;-67
2021/06/08 08:42:18;;;;;;;8.45;4.70;;;;;;;;;;10283853;28;20044;-67
2021/06/08 08:47:15;;;;;;;10.00;5.07;;;;;;;;;;10267621;28;20136;-67
2021/06/08 08:52:12;;;;;;;6.72;5.20;;;;;;;;;;10266268;28;20516;-67
2021/06/08 08:57:09;;;;;;;7.05;4.65;;;;;;;;;;10285312;28;20127;-67
2021/06/08 09:02:05;;;;;;;7.65;4.40;;;;;;;;;;10273921;28;20127;-66
2021/06/08 09:07:05;;;;;;;5.60;4.28;;;;;;;;;;10283237;28;20120;-66
2021/06/08 09:12:04;;;;;;;7.13;4.38;;;;;;;;;;10283579;28;20116;-67
2021/06/08 09:17:01;;;;;;;10.02;4.28;;;;;;;;;;10282182;28;20047;-67
2021/06/08 09:21:57;;;;;;;4.93;3.50;;;;;;;;;;10280559;28;20052;-67
2021/06/08 09:26:58;;;;;;;8.32;3.25;;;;;;;;;;10276360;28;20471;-66
2021/06/08 09:32:11;;;;;;;4.47;2.40;;;;;;;;;;10278961;28;20084;-67
2021/06/08 09:37:07;;;;;;;6.00;2.93;;;;;;;;;;10272159;28;20048;-67
2021/06/08 09:42:16;;;;;;;5.07;2.90;;;;;;;;;;10283703;28;20948;-67
2021/06/08 09:47:32;;;;;;;5.00;3.20;;;;;;;;;;10282174;28;20502;-67
2021/06/08 09:52:29;;;;;;;5.28;2.80;;;;;;;;;;10276338;28;20064;-67
2021/06/08 09:57:27;;;;;;;7.90;3.35;;;;;;;;;;10285540;28;20075;-66
2021/06/08 10:02:28;;;;;;;6.60;2.72;;;;;;;;;;10273628;28;20685;-67
2021/06/08 10:07:29;;;;;;;10.55;3.15;;;;;;;;;;10275914;28;20467;-67
2021/06/08 10:12:25;;;;;;;5.80;2.53;;;;;;;;;;10281546;28;20147;-66
2021/06/08 10:17:27;;;;;;;4.40;2.47;;;;;;;;;;10273053;28;20045;-67
2021/06/08 10:22:30;;;;;;;4.75;2.60;;;;;;;;;;10272090;28;20049;-67
2021/06/08 10:27:27;;;;;;;4.97;2.30;;;;;;;;;;10269342;28;20102;-67
2021/06/08 10:32:23;;;;;;;5.82;2.42;;;;;;;;;;10277894;28;20072;-67
2021/06/08 10:37:20;;;;;;;6.32;1.90;;;;;;;;;;10280007;28;20067;-67
2021/06/08 10:42:16;;;;;;;4.32;2.17;;;;;;;;;;10264885;28;20057;-67
2021/06/08 10:47:53;;;;;;;4.53;1.90;;;;;;;;;;10268879;28;20073;-66
2021/06/08 10:52:46;;;;;;;4.28;2.20;;;;;;;;;;10262372;28;20131;-67
2021/06/08 10:57:46;;;;;;;5.03;1.95;;;;;;;;;;10274318;28;20041;-67
2021/06/08 11:02:44;;;;;;;6.20;3.38;;;;;;;;;;10282268;28;20498;-66
2021/06/08 11:07:41;;;;;;;6.10;3.38;;;;;;;;;;10286822;28;20478;-67
2021/06/08 11:12:38;;;;;;;3.90;1.98;;;;;;;;;;10290205;28;20136;-66
2021/06/08 11:17:38;;;;;;;4.07;2.20;;;;;;;;;;10283943;28;20048;-67
2021/06/08 11:22:34;;;;;;;4.55;1.80;;;;;;;;;;10283525;28;20106;-67
2021/06/08 11:27:49;;;;;;;5.57;1.70;;;;;;;;;;10269511;28;20478;-67
2021/06/08 11:32:47;;;;;;;4.75;1.98;;;;;;;;;;10288799;28;20045;-67
2021/06/08 11:37:51;;;;;;;4.40;1.88;;;;;;;;;;10277466;28;20041;-66
2021/06/08 11:42:48;;;;;;;4.28;1.80;;;;;;;;;;10285267;28;20135;-66
2021/06/08 11:47:45;;;;;;;5.25;1.70;;;;;;;;;;10283831;28;20048;-66
2021/06/08 11:53:01;;;;;;;4.20;1.75;;;;;;;;;;10283231;28;20049;-66
2021/06/08 11:57:57;;;;;;;4.55;2.00;;;;;;;;;;10271136;28;20169;-67
2021/06/08 12:02:54;;;;;;;2.92;1.42;;;;;;;;;;10292205;28;20467;-67
2021/06/08 12:08:01;;;;;;;4.68;2.20;;;;;;;;;;10287593;28;20084;-67
2021/06/08 12:12:58;;;;;;;5.45;2.05;;;;;;;;;;10288249;28;20072;-67
2021/06/08 12:18:05;;;;;;;4.28;2.03;;;;;;;;;;10273875;28;20530;-66
2021/06/08 12:23:02;;;;;;;5.03;1.90;;;;;;;;;;10282647;28;20041;-67
2021/06/08 12:27:58;;;;;;;3.30;1.45;;;;;;;;;;10283612;28;20468;-66
2021/06/08 12:32:55;;;;;;;3.50;1.52;;;;;;;;;;10277159;28;20072;-67
2021/06/08 12:37:52;;;;;;;3.13;1.50;;;;;;;;;;10280470;28;20514;-67
2021/06/08 12:42:59;;;;;;;4.72;1.95;;;;;;;;;;10281049;28;20127;-67
2021/06/08 12:47:55;;;;;;;3.42;1.27;;;;;;;;;;10277467;28;20342;-66
2021/06/08 12:52:58;;;;;;;2.70;1.15;;;;;;;;;;10285877;28;20465;-67
2021/06/08 12:57:58;;;;;;;3.30;1.10;;;;;;;;;;10275537;28;20052;-66
2021/06/08 13:02:55;;;;;;;5.43;1.38;;;;;;;;;;10281267;28;20135;-67
2021/06/08 13:07:53;;;;;;;4.43;1.17;;;;;;;;;;10282889;28;20053;-67
2021/06/08 13:12:50;;;;;;;2.65;1.15;;;;;;;;;;10273126;28;20080;-66
2021/06/08 13:17:47;;;;;;;4.90;1.23;;;;;;;;;;10278158;28;20110;-66
2021/06/08 13:22:44;;;;;;;1.70;0.68;;;;;;;;;;10268495;28;20056;-66
2021/06/08 13:27:42;;;;;;;1.88;0.90;;;;;;;;;;10279668;28;20068;-67
2021/06/08 13:32:39;;;;;;;2.55;1.10;;;;;;;;;;10275476;28;20051;-67
2021/06/08 13:37:37;;;;;;;7.05;1.20;;;;;;;;;;10288354;28;20071;-67
2021/06/08 13:42:33;;;;;;;2.95;0.90;;;;;;;;;;10276559;28;20136;-67
2021/06/08 13:47:30;;;;;;;3.35;0.70;;;;;;;;;;10280047;28;20067;-67
2021/06/08 13:52:45;;;;;;;2.20;0.70;;;;;;;;;;10285018;28;20040;-67
2021/06/08 13:57:48;;;;;;;1.88;0.90;;;;;;;;;;10274814;28;20044;-66
2021/06/08 14:02:48;;;;;;;1.98;0.77;;;;;;;;;;10282098;28;20071;-67
2021/06/08 14:07:45;;;;;;;5.43;1.20;;;;;;;;;;10277500;28;20048;-67
2021/06/08 14:12:57;;;;;;;2.42;0.73;;;;;;;;;;10275764;28;20048;-67
2021/06/08 14:17:53;;;;;;;3.63;0.98;;;;;;;;;;10277562;28;20052;-66
2021/06/08 14:22:49;;;;;;;2.05;0.57;;;;;;;;;;10275892;28;20421;-67
2021/06/08 14:27:47;;;;;;;1.60;0.80;;;;;;;;;;10277225;28;20502;-67
2021/06/08 14:32:43;;;;;;;3.13;1.00;;;;;;;;;;10274175;28;20124;-66
2021/06/08 14:37:40;;;;;;;1.63;0.63;;;;;;;;;;10273922;28;20375;-67
2021/06/08 14:42:37;;;;;;;2.60;0.80;;;;;;;;;;10265711;28;20434;-67
2021/06/08 14:47:33;;;;;;;2.25;0.90;;;;;;;;;;10290062;28;20037;-66
2021/06/08 14:52:32;;;;;;;1.88;0.73;;;;;;;;;;10294157;28;20071;-66
2021/06/08 14:57:28;;;;;;;3.00;0.85;;;;;;;;;;10266408;28;20086;-67
2021/06/08 15:02:24;;;;;;;2.85;0.80;;;;;;;;;;10277112;28;20087;-67
2021/06/08 15:07:21;;;;;;;3.45;1.08;;;;;;;;;;10294629;28;20120;-67
2021/06/08 15:12:17;;;;;;;3.65;1.00;;;;;;;;;;10281016;28;20071;-66
2021/06/08 15:17:13;;;;;;;3.05;0.80;;;;;;;;;;10285575;28;20530;-66
2021/06/08 15:22:10;;;;;;;3.78;0.73;;;;;;;;;;10284455;28;20045;-66
2021/06/08 15:27:07;;;;;;;2.13;0.75;;;;;;;;;;10279302;28;20434;-66
2021/06/08 15:32:03;;;;;;;4.25;1.25;;;;;;;;;;10287715;28;20463;-66
2021/06/08 15:37:00;;;;;;;2.17;0.70;;;;;;;;;;10282117;28;20696;-66
2021/06/08 15:41:57;;;;;;;3.33;0.93;;;;;;;;;;10283704;28;20057;-66
2021/06/08 15:47:21;;;;;;;1.65;0.82;;;;;;;;;;10278931;28;20037;-66
2021/06/08 15:52:19;;;;;;;3.35;0.98;;;;;;;;;;10287694;28;20052;-66
2021/06/08 15:57:21;;;;;;;1.08;0.60;;;;;;;;;;10272820;28;20068;-66
2021/06/08 16:02:18;;;;;;;3.30;0.85;;;;;;;;;;10285221;28;20069;-67
2021/06/08 16:07:14;;;;;;;2.25;0.70;;;;;;;;;;10275148;28;20124;-67
2021/06/08 16:12:11;;;;;;;2.10;0.75;;;;;;;;;;10290758;28;20059;-67
2021/06/08 16:17:07;;;;;;;2.33;0.70;;;;;;;;;;10279476;28;20450;-66
2021/06/08 16:22:04;;;;;;;1.95;0.70;;;;;;;;;;10282398;28;20553;-67
2021/06/08 16:27:01;;;;;;;1.48;0.60;;;;;;;;;;10284281;28;20044;-67
2021/06/08 16:31:57;;;;;;;1.40;0.50;;;;;;;;;;10284362;28;20114;-67
2021/06/08 16:36:55;;;;;;;1.95;0.70;;;;;;;;;;10289046;28;20136;-67
2021/06/08 16:41:51;;;;;;;2.20;0.90;;;;;;;;;;10265756;28;20102;-67
2021/06/08 16:46:47;;;;;;;1.90;0.60;;;;;;;;;;10278600;28;20044;-67
2021/06/08 16:56:40;;;;;;;4.75;0.70;;;;;;;;;;10278057;28;20076;-66
2021/06/08 17:01:40;;;;;;;1.80;0.70;;;;;;;;;;10277617;28;20103;-67
2021/06/08 17:06:36;;;;;;;3.47;1.13;;;;;;;;;;10266840;28;20506;-67
2021/06/08 17:11:33;;;;;;;2.75;0.70;;;;;;;;;;10265946;28;20049;-67
2021/06/08 17:16:31;;;;;;;1.75;0.80;;;;;;;;;;10279055;28;20136;-66
2021/06/08 17:21:29;;;;;;;3.22;0.82;;;;;;;;;;10289843;28;20472;-66
2021/06/08 17:26:26;;;;;;;2.25;0.77;;;;;;;;;;10276040;28;20135;-65
2021/06/08 17:31:22;;;;;;;3.35;0.80;;;;;;;;;;10283540;28;20040;-65
2021/06/08 17:36:19;;;;;;;2.13;0.60;;;;;;;;;;10276401;28;20488;-65
2021/06/08 17:41:16;;;;;;;1.73;0.60;;;;;;;;;;10270106;28;20036;-66
2021/06/08 17:46:12;;;;;;;5.15;0.90;;;;;;;;;;10283198;28;20459;-65
2021/06/08 17:51:09;;;;;;;1.80;0.60;;;;;;;;;;10270482;28;20053;-65
2021/06/08 17:56:05;;;;;;;1.85;0.77;;;;;;;;;;10278339;28;20128;-66
2021/06/08 18:01:01;;;;;;;2.95;0.95;;;;;;;;;;10270898;28;20046;-65
2021/06/08 18:05:58;;;;;;;2.38;0.50;;;;;;;;;;10278540;28;20076;-65
2021/06/08 18:10:54;;;;;;;5.43;0.70;;;;;;;;;;10278538;28;20550;-66
2021/06/08 18:15:52;;;;;;;2.30;0.60;;;;;;;;;;10277556;28;20132;-66
2021/06/08 18:20:48;;;;;;;2.47;0.90;;;;;;;;;;10275382;28;20087;-65
2021/06/08 18:25:45;;;;;;;2.17;0.50;;;;;;;;;;10273741;28;20048;-66
2021/06/08 18:30:41;;;;;;;2.30;0.90;;;;;;;;;;10278787;28;20488;-66
2021/06/08 18:35:37;;;;;;;3.65;1.08;;;;;;;;;;10274577;28;20486;-67
2021/06/08 18:40:35;;;;;;;2.03;0.73;;;;;;;;;;10280023;28;20056;-66
2021/06/08 18:45:31;;;;;;;2.53;0.90;;;;;;;;;;10274367;28;20071;-68
2021/06/08 18:50:27;;;;;;;3.78;1.00;;;;;;;;;;10284478;28;20560;-66
2021/06/08 18:55:24;;;;;;;2.20;0.80;;;;;;;;;;10276930;28;20041;-66
2021/06/08 19:00:22;;;;;;;3.92;1.00;;;;;;;;;;10269845;28;20045;-66
2021/06/08 19:05:19;;;;;;;10.10;2.03;;;;;;;;;;10275162;28;20063;-66
2021/06/08 19:10:16;;;;;;;4.38;1.20;;;;;;;;;;10273732;28;20072;-65
2021/06/08 19:15:12;;;;;;;2.65;1.00;;;;;;;;;;10281616;28;20095;-66
2021/06/08 19:20:09;;;;;;;3.70;1.13;;;;;;;;;;10278550;28;20434;-66
2021/06/08 19:25:06;;;;;;;5.00;0.73;;;;;;;;;;10278843;28;20087;-66
2021/06/08 19:30:07;;;;;;;1.95;0.88;;;;;;;;;;10285616;28;20052;-66
2021/06/08 19:35:04;;;;;;;2.40;0.70;;;;;;;;;;10282091;28;20048;-66
2021/06/08 19:40:01;;;;;;;4.07;1.00;;;;;;;;;;10275843;28;20052;-66
2021/06/08 19:44:57;;;;;;;2.90;1.17;;;;;;;;;;10281475;28;20049;-66
2021/06/08 19:49:54;;;;;;;2.53;0.88;;;;;;;;;;10281649;28;20064;-66
2021/06/08 19:54:50;;;;;;;3.63;1.27;;;;;;;;;;10277262;28;20053;-65
2021/06/08 19:59:49;;;;;;;2.60;1.00;;;;;;;;;;10280028;28;20041;-66
2021/06/08 20:04:45;;;;;;;3.80;1.10;;;;;;;;;;10280608;28;20417;-66
2021/06/08 20:09:42;;;;;;;3.97;1.15;;;;;;;;;;10288749;28;20079;-66
2021/06/08 20:14:38;;;;;;;2.80;1.13;;;;;;;;;;10290966;28;20068;-66
2021/06/08 20:19:34;;;;;;;3.75;1.02;;;;;;;;;;10273841;28;20464;-66
2021/06/08 20:24:35;;;;;;;2.72;1.40;;;;;;;;;;10270115;28;20088;-65
2021/06/08 20:29:32;;;;;;;2.85;1.20;;;;;;;;;;10261583;28;20041;-66
2021/06/08 20:34:28;;;;;;;2.50;1.20;;;;;;;;;;10272897;28;20573;-66
2021/06/08 20:39:25;;;;;;;3.22;1.50;;;;;;;;;;10262467;28;20704;-66
2021/06/08 20:44:22;;;;;;;4.30;1.95;;;;;;;;;;10284003;28;20034;-66
2021/06/08 20:49:18;;;;;;;4.22;1.55;;;;;;;;;;10283191;28;20566;-66
2021/06/08 20:54:15;;;;;;;4.70;2.00;;;;;;;;;;10278682;28;20064;-66
2021/06/08 20:59:12;;;;;;;3.80;1.50;;;;;;;;;;10273966;28;20076;-66
2021/06/08 21:04:08;;;;;;;4.30;1.60;;;;;;;;;;10262613;28;20045;-66
2021/06/08 21:09:05;;;;;;;3.08;1.40;;;;;;;;;;10269456;28;20055;-66
2021/06/08 21:14:03;;;;;;;4.22;1.63;;;;;;;;;;10274577;28;20041;-66
2021/06/08 21:18:59;;;;;;;3.88;1.83;;;;;;;;;;10267441;28;20076;-66
2021/06/08 21:23:56;;;;;;;3.80;1.85;;;;;;;;;;10273020;28;20473;-66
2021/06/08 21:28:53;;;;;;;4.57;2.15;;;;;;;;;;10279367;28;20136;-65
2021/06/08 21:33:49;;;;;;;4.93;2.67;;;;;;;;;;10279290;28;20064;-66
2021/06/08 21:38:46;;;;;;;5.93;2.78;;;;;;;;;;10273663;28;20131;-66
2021/06/08 21:43:42;;;;;;;6.78;2.80;;;;;;;;;;10286718;28;20327;-66
2021/06/08 21:48:38;;;;;;;5.28;2.78;;;;;;;;;;10276978;28;20147;-66
2021/06/08 21:53:35;;;;;;;5.78;2.78;;;;;;;;;;10283238;28;20132;-66
2021/06/08 21:58:31;;;;;;;6.60;2.95;;;;;;;;;;10280491;28;20103;-66
2021/06/08 22:03:27;;;;;;;5.30;2.97;;;;;;;;;;10278154;28;20068;-65
2021/06/08 22:08:24;;;;;;;5.93;3.22;;;;;;;;;;10282394;28;20552;-66
2021/06/08 22:13:20;;;;;;;6.88;2.90;;;;;;;;;;10284283;28;20475;-66
2021/06/08 22:18:19;;;;;;;4.68;2.60;;;;;;;;;;10278284;28;20463;-66
2021/06/08 22:23:16;;;;;;;6.43;2.92;;;;;;;;;;10281851;28;20064;-66
2021/06/08 22:28:13;;;;;;;4.70;2.55;;;;;;;;;;10273021;28;20562;-66
2021/06/08 22:33:09;;;;;;;4.70;2.35;;;;;;;;;;10270004;28;20053;-66
2021/06/08 22:38:06;;;;;;;5.35;2.53;;;;;;;;;;10273984;28;20041;-65
2021/06/08 22:43:02;;;;;;;4.25;2.40;;;;;;;;;;10273472;28;20640;-66
2021/06/08 22:47:58;;;;;;;7.13;2.67;;;;;;;;;;10285229;28;20099;-66
2021/06/08 22:53:00;;;;;;;4.82;2.38;;;;;;;;;;10288876;28;20090;-66
2021/06/08 22:57:56;;;;;;;4.50;2.33;;;;;;;;;;10274229;28;20041;-66
2021/06/08 23:02:53;;;;;;;5.80;2.63;;;;;;;;;;10272752;28;20131;-66
2021/06/08 23:07:50;;;;;;;6.13;2.70;;;;;;;;;;10275388;28;20490;-65
2021/06/08 23:12:47;;;;;;;6.75;2.80;;;;;;;;;;10286207;28;20040;-66
2021/06/08 23:17:43;;;;;;;7.18;3.60;;;;;;;;;;10276534;28;20164;-66
2021/06/08 23:22:40;;;;;;;5.45;3.15;;;;;;;;;;10274614;28;20110;-65
2021/06/08 23:27:37;;;;;;;5.85;3.20;;;;;;;;;;10280873;28;20083;-65
2021/06/08 23:32:34;;;;;;;6.05;3.03;;;;;;;;;;10284855;28;20064;-66
2021/06/08 23:37:30;;;;;;;6.97;3.15;;;;;;;;;;10284523;28;20514;-66
2021/06/08 23:42:26;;;;;;;5.55;2.65;;;;;;;;;;10282244;28;20088;-66
2021/06/08 23:47:23;;;;;;;4.07;2.28;;;;;;;;;;10279695;28;20065;-66
2021/06/08 23:52:19;;;;;;;4.97;2.33;;;;;;;;;;10281696;28;20461;-66
2021/06/08 23:57:15;;;;;;;5.55;2.72;;;;;;;;;;10287061;28;20040;-66
